KPT weather

Jackpot Airport/Hayden Field
Jackpot, Nevada, United States

Public forecast

Using degrees Fahrenheit for public forecast. Weather courtesy of forecast.io.

METAR (pilot weather report)

Closest report is Joslin Field Magic Valley Regional Airport, 31.3 nm (58.0 km) NNE. Retrieved 2019/07/15 16:53 UTC (34 minutes ago):

KTWF 151653Z 30012KT 10SM CLR 26/07 A3009 RMK AO2 SLP130 T02560067

TAF (pilot weather forecast)

Closest forecast is Joslin Field Magic Valley Regional Airport, 31.3 nm (58.0 km) NNE. Retrieved 2019/07/15 12:24 UTC (5 hours ago):

TAF KTWF 151121Z 1512/1612 22012KT P6SM SKC FM151800 29012KT P6SM SKC FM160500 23010KT P6SM SKC